Terminal Aerodrome Forecast
Issued by NWS

Home | Current Version | Previous Version | Text Only | Print | Product List | Glossary On
Versions: 1 2 3 4 5 6 7 8 9 10 11 12 13 14 15 16
000
FTUS46 KMTR 210100 AAA
TAFSNS
TAF AMD
KSNS 210151Z 2102/2124 29016G21KT P6SM SKC
      TEMPO 2102/2104 BKN012
     FM210400 28004KT P6SM BKN012
     FM210800 VRB03KT P6SM OVC008
     FM211800 29011KT P6SM FEW012=

USA.gov is the U.S. government's official web portal to all federal, state and local government web resources and services.